createdAt,value
2018-01-25T00:01:39.527Z,5.60
2018-01-25T00:04:08.888Z,6.00
2018-01-25T00:06:37.286Z,6.00
2018-01-25T00:09:06.436Z,6.20
2018-01-25T00:11:34.976Z,6.20
2018-01-25T00:14:03.402Z,6.20
2018-01-25T00:16:32.559Z,6.40
2018-01-25T00:19:02.520Z,6.40
2018-01-25T00:21:30.891Z,6.40
2018-01-25T00:23:59.335Z,6.50
2018-01-25T00:26:27.711Z,6.50
2018-01-25T00:28:56.087Z,6.50
2018-01-25T00:31:24.691Z,6.60
2018-01-25T00:33:53.077Z,6.60
2018-01-25T00:36:21.546Z,6.70
2018-01-25T00:38:50.049Z,6.70
2018-01-25T00:41:18.438Z,6.80
2018-01-25T00:43:47.309Z,6.80
2018-01-25T00:46:15.766Z,6.80
2018-01-25T00:48:44.920Z,6.60
2018-01-25T00:51:13.341Z,6.60
2018-01-25T00:53:41.878Z,6.40
2018-01-25T00:56:10.251Z,6.40
2018-01-25T00:58:38.651Z,6.30
2018-01-25T01:01:07.475Z,6.20
2018-01-25T01:03:36.627Z,6.20
2018-01-25T01:06:05.472Z,6.20
2018-01-25T01:08:33.841Z,6.20
2018-01-25T01:11:02.220Z,6.20
2018-01-25T01:13:31.413Z,6.10
2018-01-25T01:15:59.795Z,6.10
2018-01-25T01:18:28.186Z,6.00
2018-01-25T01:20:57.485Z,5.90
2018-01-25T01:23:25.866Z,5.90
2018-01-25T01:25:54.285Z,5.80
2018-01-25T01:28:22.750Z,5.70
2018-01-25T01:30:51.939Z,5.50
2018-01-25T01:33:20.298Z,5.50
2018-01-25T01:35:48.733Z,5.40
2018-01-25T01:38:17.109Z,5.40
2018-01-25T01:40:45.485Z,5.30
2018-01-25T01:43:13.949Z,5.10
2018-01-25T01:45:42.308Z,5.00
2018-01-25T01:48:11.464Z,4.80
2018-01-25T01:50:39.950Z,4.80
2018-01-25T01:53:08.314Z,4.70
2018-01-25T01:55:36.729Z,4.70
2018-01-25T01:58:05.172Z,5.10
2018-01-25T02:00:33.568Z,5.30
2018-01-25T02:03:01.956Z,5.60
2018-01-25T02:05:30.410Z,6.20
2018-01-25T02:07:59.085Z,6.70
2018-01-25T02:10:28.271Z,7.90
2018-01-25T02:12:58.190Z,8.60
2018-01-25T02:15:27.629Z,8.60
2018-01-25T02:17:56.011Z,8.80
2018-01-25T02:20:24.380Z,9.10
2018-01-25T02:22:53.719Z,9.40
2018-01-25T02:25:22.085Z,9.40
2018-01-25T02:27:51.216Z,9.60
2018-01-25T02:30:19.676Z,9.60
2018-01-25T02:32:48.783Z,9.60
2018-01-25T02:35:17.158Z,9.50
2018-01-25T02:37:45.611Z,9.50
2018-01-25T02:40:13.965Z,9.60
2018-01-25T02:42:42.305Z,9.80
2018-01-25T02:45:11.552Z,9.80
2018-01-25T02:47:39.918Z,9.80
2018-01-25T02:50:08.304Z,9.80
2018-01-25T02:52:36.921Z,9.80
2018-01-25T02:55:05.304Z,9.80
2018-01-25T02:57:33.682Z,9.80
2018-01-25T03:00:02.637Z,9.80
2018-01-25T03:02:31.087Z,9.70
2018-01-25T03:04:59.549Z,9.70
2018-01-25T03:07:28.002Z,9.60
2018-01-25T03:09:56.433Z,9.50
2018-01-25T03:12:25.612Z,9.40
2018-01-25T03:14:55.178Z,9.20
2018-01-25T03:17:24.358Z,9.10
2018-01-25T03:19:53.508Z,9.00
2018-01-25T03:22:22.052Z,9.10
2018-01-25T03:24:50.428Z,8.90
2018-01-25T03:27:19.643Z,8.60
2018-01-25T03:29:48.812Z,8.30
2018-01-25T03:32:17.199Z,8.30
2018-01-25T03:34:45.574Z,8.00
2018-01-25T03:37:14.024Z,7.80
2018-01-25T03:39:42.461Z,7.50
2018-01-25T03:42:10.852Z,7.40
2018-01-25T03:44:40.250Z,7.10
2018-01-25T03:47:09.414Z,6.90
2018-01-25T03:49:37.792Z,6.90
2018-01-25T03:52:06.268Z,6.80
2018-01-25T03:54:34.678Z,6.80
2018-01-25T03:57:03.064Z,6.70
2018-01-25T03:59:31.549Z,6.70
2018-01-25T04:01:59.918Z,6.50
2018-01-25T04:04:28.353Z,6.50
2018-01-25T04:06:57.543Z,6.30
2018-01-25T04:09:25.923Z,6.30
2018-01-25T04:11:55.077Z,6.10
2018-01-25T04:14:23.668Z,6.10
2018-01-25T04:16:52.040Z,6.00
2018-01-25T04:19:21.397Z,5.90
2018-01-25T04:21:49.838Z,5.80
2018-01-25T04:24:18.195Z,5.70
2018-01-25T04:26:47.321Z,5.50
2018-01-25T04:29:16.515Z,5.30
2018-01-25T04:31:44.859Z,5.30
2018-01-25T04:34:13.210Z,5.30
2018-01-25T04:36:41.701Z,5.20
2018-01-25T04:39:12.559Z,5.20
2018-01-25T04:41:42.328Z,5.10
2018-01-25T04:44:10.722Z,5.10
2018-01-25T04:46:39.100Z,5.10
2018-01-25T04:49:07.541Z,5.10
2018-01-25T04:51:36.680Z,5.10
2018-01-25T04:54:05.925Z,5.10
2018-01-25T04:56:35.077Z,5.20
2018-01-25T04:59:04.178Z,5.20
2018-01-25T05:01:32.674Z,5.20
2018-01-25T05:04:01.831Z,5.30
2018-01-25T05:06:30.237Z,5.30
2018-01-25T05:08:58.716Z,5.30
2018-01-25T05:11:27.850Z,5.70
2018-01-25T05:13:56.965Z,5.90
2018-01-25T05:16:25.448Z,5.90
2018-01-25T05:18:53.885Z,6.00
2018-01-25T05:21:23.476Z,6.30
2018-01-25T05:23:51.944Z,6.20
2018-01-25T05:26:26.036Z,6.60
2018-01-25T05:28:54.389Z,6.90
2018-01-25T05:31:23.648Z,7.20
2018-01-25T05:33:52.043Z,7.20
2018-01-25T05:36:20.441Z,7.20
2018-01-25T05:38:49.659Z,7.50
2018-01-25T05:41:18.034Z,7.50
2018-01-25T05:43:47.206Z,7.60
2018-01-25T05:46:15.648Z,7.60
2018-01-25T05:48:44.011Z,7.70
2018-01-25T05:51:12.414Z,7.70
2018-01-25T05:53:41.644Z,7.80
2018-01-25T05:56:10.028Z,7.70
2018-01-25T05:58:38.408Z,7.80
2018-01-25T06:01:07.674Z,7.80
2018-01-25T06:03:36.846Z,7.90
2018-01-25T06:06:05.999Z,7.80
2018-01-25T06:08:34.681Z,7.80
2018-01-25T06:11:03.085Z,7.80
2018-01-25T06:13:31.558Z,7.80
2018-01-25T06:16:00.026Z,7.80
2018-01-25T06:18:28.388Z,7.80
2018-01-25T06:20:57.516Z,7.90
2018-01-25T06:23:26.740Z,7.80
2018-01-25T06:25:55.177Z,7.80
2018-01-25T06:28:24.332Z,7.90
2018-01-25T06:30:53.857Z,7.80
2018-01-25T06:33:22.245Z,7.90
2018-01-25T06:35:50.603Z,7.90
2018-01-25T06:38:19.096Z,7.90
2018-01-25T06:40:47.468Z,7.90
2018-01-25T06:43:15.853Z,8.00
2018-01-25T06:45:44.341Z,8.00
2018-01-25T06:48:12.724Z,7.90
2018-01-25T06:50:41.100Z,7.80
2018-01-25T06:53:09.553Z,7.60
2018-01-25T06:55:38.737Z,7.10
2018-01-25T06:58:07.963Z,6.90
2018-01-25T07:00:36.485Z,6.90
2018-01-25T07:03:04.870Z,6.80
2018-01-25T07:05:33.226Z,6.60
2018-01-25T07:08:01.698Z,6.60
2018-01-25T07:10:30.152Z,6.40
2018-01-25T07:12:58.518Z,6.30
2018-01-25T07:15:27.030Z,6.20
2018-01-25T07:17:55.400Z,6.20
2018-01-25T07:20:23.760Z,6.10
2018-01-25T07:22:52.220Z,6.20
2018-01-25T07:25:20.817Z,6.30
2018-01-25T07:27:49.222Z,6.30
2018-01-25T07:30:17.670Z,6.30
2018-01-25T07:32:46.794Z,6.40
2018-01-25T07:35:15.155Z,6.40
2018-01-25T07:37:43.645Z,6.50
2018-01-25T07:40:12.059Z,6.60
2018-01-25T07:42:40.419Z,6.60
2018-01-25T07:45:08.908Z,6.70
2018-01-25T07:47:37.283Z,6.90
2018-01-25T07:50:05.732Z,7.00
2018-01-25T07:52:35.023Z,7.30
2018-01-25T07:55:03.446Z,7.30
2018-01-25T07:57:38.404Z,7.60
2018-01-25T08:00:06.805Z,7.60
2018-01-25T08:02:35.199Z,7.80
2018-01-25T08:05:04.976Z,7.90
2018-01-25T08:07:34.192Z,8.00
2018-01-25T08:10:02.544Z,8.00
2018-01-25T08:12:31.749Z,8.10
2018-01-25T08:15:00.880Z,8.30
2018-01-25T08:17:29.272Z,8.30
2018-01-25T08:19:58.903Z,8.40
2018-01-25T08:22:27.308Z,8.50
2018-01-25T08:24:55.700Z,8.60
2018-01-25T08:27:24.290Z,8.70
2018-01-25T08:29:53.438Z,9.10
2018-01-25T08:32:21.827Z,9.10
2018-01-25T08:34:50.306Z,9.40
2018-01-25T08:37:18.707Z,9.50
2018-01-25T08:39:47.086Z,9.70
2018-01-25T08:42:15.673Z,9.80
2018-01-25T08:44:44.039Z,9.90
2018-01-25T08:47:12.435Z,10.00
2018-01-25T08:49:41.699Z,10.30
2018-01-25T08:52:10.060Z,10.20
2018-01-25T08:54:39.267Z,11.00
2018-01-25T08:57:08.499Z,11.60
2018-01-25T08:59:36.910Z,11.60
2018-01-25T09:02:05.264Z,11.70
2018-01-25T09:04:33.882Z,11.80
2018-01-25T09:07:02.297Z,11.90
2018-01-25T09:09:30.694Z,11.90
2018-01-25T09:11:59.310Z,11.90
2018-01-25T09:14:27.724Z,11.70
2018-01-25T09:16:56.116Z,11.70
2018-01-25T09:19:24.612Z,11.70
2018-01-25T09:21:53.009Z,11.80
2018-01-25T09:24:21.383Z,11.80
2018-01-25T09:26:49.864Z,11.90
2018-01-25T09:29:19.121Z,12.00
2018-01-25T09:31:47.503Z,12.20
2018-01-25T09:34:16.756Z,12.80
2018-01-25T09:36:45.108Z,12.70
2018-01-25T09:39:20.474Z,12.80
2018-01-25T09:41:48.883Z,13.00
2018-01-25T09:44:18.024Z,13.00
2018-01-25T09:46:46.485Z,13.00
2018-01-25T09:49:15.230Z,12.90
2018-01-25T09:51:44.753Z,12.60
2018-01-25T09:54:14.213Z,12.50
2018-01-25T09:56:42.559Z,12.50
2018-01-25T09:59:11.761Z,12.40
2018-01-25T10:01:41.234Z,12.40
2018-01-25T10:04:09.624Z,12.30
2018-01-25T10:06:38.006Z,12.40
2018-01-25T10:09:06.476Z,12.50
2018-01-25T10:11:34.894Z,12.70
2018-01-25T10:14:03.252Z,12.80
2018-01-25T10:16:31.683Z,12.70
2018-01-25T10:19:00.844Z,13.00
2018-01-25T10:21:29.233Z,12.90
2018-01-25T10:23:57.694Z,13.00
2018-01-25T10:26:26.109Z,13.00
2018-01-25T10:28:54.515Z,13.00
2018-01-25T10:31:23.663Z,12.90
2018-01-25T10:33:52.030Z,12.80
2018-01-25T10:36:20.427Z,12.60
2018-01-25T10:38:49.014Z,12.60
2018-01-25T10:41:17.406Z,12.70
2018-01-25T10:43:46.197Z,12.80
2018-01-25T10:46:15.452Z,13.00
2018-01-25T10:48:44.653Z,13.20
2018-01-25T10:51:13.313Z,13.20
2018-01-25T10:53:43.623Z,13.30
2018-01-25T10:56:13.091Z,13.60
2018-01-25T10:58:42.002Z,13.60
2018-01-25T11:01:25.414Z,13.80
2018-01-25T11:03:54.379Z,13.70
2018-01-25T11:06:23.891Z,13.80
2018-01-25T11:08:52.328Z,13.80
2018-01-25T11:11:21.001Z,14.00
2018-01-25T11:13:50.192Z,14.00
2018-01-25T11:16:20.101Z,14.00
2018-01-25T11:18:49.579Z,13.90
2018-01-25T11:21:18.047Z,14.00
2018-01-25T11:23:46.836Z,14.10
2018-01-25T11:26:15.929Z,14.30
2018-01-25T11:28:44.461Z,14.50
2018-01-25T11:31:12.859Z,14.70
2018-01-25T11:33:42.720Z,15.10
2018-01-25T11:36:11.148Z,15.10
2018-01-25T11:38:40.300Z,15.20
2018-01-25T11:41:09.104Z,15.10
2018-01-25T11:43:37.509Z,15.00
2018-01-25T11:46:05.933Z,15.10
2018-01-25T11:48:35.177Z,15.00
2018-01-25T11:51:03.617Z,14.90
2018-01-25T11:53:31.996Z,14.90
2018-01-25T11:56:00.910Z,15.00
2018-01-25T11:58:29.303Z,15.30
2018-01-25T12:00:58.438Z,15.60
2018-01-25T12:03:27.682Z,15.60
2018-01-25T12:05:57.785Z,15.80
2018-01-25T12:08:26.152Z,16.00
2018-01-25T12:10:54.565Z,15.80
2018-01-25T12:13:22.993Z,16.00
2018-01-25T12:15:51.434Z,15.90
2018-01-25T12:18:20.724Z,15.80
2018-01-25T12:20:50.279Z,15.60
2018-01-25T12:23:18.846Z,15.60
2018-01-25T12:25:48.069Z,15.90
2018-01-25T12:28:16.507Z,15.80
2018-01-25T12:30:45.258Z,15.90
2018-01-25T12:33:13.807Z,16.00
2018-01-25T12:35:44.213Z,15.60
2018-01-25T12:38:12.675Z,15.60
2018-01-25T12:40:41.527Z,15.50
2018-01-25T12:43:11.229Z,15.00
2018-01-25T12:45:40.996Z,15.00
2018-01-25T12:48:09.728Z,15.00
2018-01-25T12:50:41.647Z,14.90
2018-01-25T12:53:12.134Z,14.70
2018-01-25T12:55:41.413Z,14.60
2018-01-25T12:58:09.824Z,14.50
2018-01-25T13:00:41.426Z,14.30
2018-01-25T13:03:13.781Z,14.30
2018-01-25T13:05:43.368Z,14.30
2018-01-25T13:08:17.233Z,14.20
2018-01-25T13:10:49.928Z,13.90
2018-01-25T13:13:19.499Z,13.70
2018-01-25T13:15:48.090Z,13.70
2018-01-25T13:18:16.743Z,13.70
2018-01-25T13:20:45.282Z,13.60
2018-01-25T13:23:13.965Z,13.50
2018-01-25T13:25:42.391Z,13.50
2018-01-25T13:28:11.616Z,13.50
2018-01-25T13:30:40.023Z,13.50
2018-01-25T13:33:14.139Z,13.60
2018-01-25T13:35:42.524Z,13.60
2018-01-25T13:38:10.926Z,13.60
2018-01-25T13:40:39.891Z,13.40
2018-01-25T13:43:09.074Z,13.30
2018-01-25T13:45:37.474Z,13.30
2018-01-25T13:48:06.697Z,13.30
2018-01-25T13:50:35.105Z,13.30
2018-01-25T13:53:03.476Z,13.30
2018-01-25T13:55:32.982Z,13.30
2018-01-25T13:58:01.532Z,13.10
2018-01-25T14:00:30.714Z,12.80
2018-01-25T14:02:59.987Z,12.60
2018-01-25T14:05:28.391Z,12.60
2018-01-25T14:07:56.828Z,12.60
2018-01-25T14:10:25.311Z,12.50
2018-01-25T14:12:54.166Z,12.40
2018-01-25T14:15:23.359Z,12.10
2018-01-25T14:17:52.826Z,12.10
2018-01-25T14:20:24.334Z,12.10
2018-01-25T14:22:53.514Z,12.10
2018-01-25T14:25:21.927Z,12.10
2018-01-25T14:27:50.565Z,12.00
2018-01-25T14:30:18.995Z,11.90
2018-01-25T14:32:47.472Z,11.90
2018-01-25T14:35:15.924Z,11.80
2018-01-25T14:37:44.309Z,11.70
2018-01-25T14:40:12.769Z,11.60
2018-01-25T14:42:41.526Z,11.60
2018-01-25T14:45:10.699Z,11.40
2018-01-25T14:47:39.618Z,11.40
2018-01-25T14:50:08.806Z,11.40
2018-01-25T14:52:37.228Z,11.40
2018-01-25T14:55:06.600Z,11.20
2018-01-25T14:57:35.008Z,11.20
2018-01-25T15:00:04.210Z,11.20
2018-01-25T15:02:33.489Z,11.10
2018-01-25T15:05:01.881Z,11.00
2018-01-25T15:07:30.310Z,10.90
2018-01-25T15:09:59.198Z,10.70
2018-01-25T15:12:27.743Z,10.70
2018-01-25T15:15:05.538Z,10.60
2018-01-25T15:17:34.587Z,10.50
2018-01-25T15:20:02.986Z,10.40
2018-01-25T15:22:32.243Z,10.30
2018-01-25T15:25:07.614Z,10.30
2018-01-25T15:27:36.573Z,10.30
2018-01-25T15:30:06.146Z,10.20
2018-01-25T15:32:35.246Z,10.20
2018-01-25T15:35:03.745Z,10.10
2018-01-25T15:37:32.554Z,10.10
2018-01-25T15:40:01.665Z,10.10
2018-01-25T15:42:30.124Z,9.90
2018-01-25T15:45:00.056Z,9.80
2018-01-25T15:47:29.431Z,9.50
2018-01-25T15:49:58.493Z,9.50
2018-01-25T15:52:28.131Z,9.40
2018-01-25T15:54:57.851Z,9.30
2018-01-25T15:57:26.468Z,9.20
2018-01-25T15:59:55.879Z,9.00
2018-01-25T16:02:24.262Z,8.90
2018-01-25T16:04:53.114Z,8.80
2018-01-25T16:07:22.055Z,8.70
2018-01-25T16:09:51.515Z,8.70
2018-01-25T16:12:19.945Z,8.60
2018-01-25T16:14:48.841Z,8.50
2018-01-25T16:17:17.341Z,8.50
2018-01-25T16:19:47.766Z,8.30
2018-01-25T16:22:16.799Z,8.30
2018-01-25T16:24:47.131Z,8.20
2018-01-25T16:27:19.149Z,8.20
2018-01-25T16:29:47.893Z,8.00
2018-01-25T16:32:17.029Z,8.00
2018-01-25T16:34:46.393Z,8.10
2018-01-25T16:37:19.925Z,8.00
2018-01-25T16:39:49.432Z,7.90
2018-01-25T16:42:18.084Z,7.90
2018-01-25T16:44:46.837Z,7.90
2018-01-25T16:47:16.591Z,7.80
2018-01-25T16:49:45.893Z,7.80
2018-01-25T16:52:14.637Z,7.70
2018-01-25T16:54:44.989Z,7.70
2018-01-25T16:57:14.834Z,7.60
2018-01-25T16:59:43.719Z,7.60
2018-01-25T17:02:16.730Z,7.50
2018-01-25T17:04:45.829Z,7.50
2018-01-25T17:07:15.314Z,7.40
2018-01-25T17:09:45.686Z,7.20
2018-01-25T17:12:15.659Z,7.20
2018-01-25T17:14:46.285Z,7.20
2018-01-25T17:17:14.948Z,7.20
2018-01-25T17:19:43.647Z,7.10
2018-01-25T17:22:13.050Z,7.00
2018-01-25T17:24:42.469Z,6.90
2018-01-25T17:27:11.278Z,6.70
2018-01-25T17:29:45.100Z,6.60
2018-01-25T17:32:14.236Z,6.60
2018-01-25T17:34:43.469Z,6.50
2018-01-25T17:37:12.302Z,6.40
2018-01-25T17:39:40.959Z,6.40
2018-01-25T17:42:10.375Z,6.20
2018-01-25T17:44:40.689Z,6.20
2018-01-25T17:47:11.984Z,6.20
2018-01-25T17:49:42.773Z,6.10
2018-01-25T17:52:12.678Z,6.10
2018-01-25T17:54:44.256Z,6.00
2018-01-25T17:57:15.803Z,5.90
2018-01-25T17:59:44.682Z,5.80
2018-01-25T18:02:13.458Z,5.80
2018-01-25T18:04:43.128Z,5.60
2018-01-25T18:07:11.910Z,5.60
2018-01-25T18:09:40.688Z,5.50
2018-01-25T18:12:11.354Z,5.60
2018-01-25T18:14:40.161Z,5.60
2018-01-25T18:17:08.975Z,5.50
2018-01-25T18:19:39.214Z,5.50
2018-01-25T18:22:08.983Z,5.50
2018-01-25T18:24:37.736Z,5.50
2018-01-25T18:27:06.658Z,5.40
2018-01-25T18:29:35.118Z,5.50
2018-01-25T18:32:03.955Z,5.40
2018-01-25T18:34:32.624Z,5.50
2018-01-25T18:37:01.158Z,5.50
2018-01-25T18:39:29.694Z,5.60
2018-01-25T18:41:59.097Z,5.50
2018-01-25T18:44:28.291Z,5.50
2018-01-25T18:46:56.802Z,5.50
2018-01-25T18:49:25.598Z,5.50
2018-01-25T18:51:55.345Z,5.50
2018-01-25T18:54:25.646Z,5.50
2018-01-25T18:56:55.351Z,5.50
2018-01-25T18:59:25.117Z,5.50
2018-01-25T19:01:57.638Z,5.50
2018-01-25T19:04:27.528Z,5.40
2018-01-25T19:06:56.540Z,5.40
2018-01-25T19:09:26.259Z,5.40
2018-01-25T19:11:55.585Z,5.40
2018-01-25T19:14:24.153Z,5.30
2018-01-25T19:16:53.065Z,5.40
2018-01-25T19:19:21.731Z,5.30
2018-01-25T19:21:50.649Z,5.20
2018-01-25T19:24:19.730Z,5.20
2018-01-25T19:26:48.959Z,5.30
2018-01-25T19:29:17.902Z,5.30
2018-01-25T19:31:48.141Z,5.40
2018-01-25T19:34:18.007Z,5.40
2018-01-25T19:36:49.031Z,5.40
2018-01-25T19:39:18.065Z,5.40
2018-01-25T19:41:47.250Z,5.40
2018-01-25T19:44:19.892Z,5.50
2018-01-25T19:46:49.026Z,5.40
2018-01-25T19:49:17.482Z,5.40
2018-01-25T19:51:46.100Z,5.50
2018-01-25T19:54:14.837Z,5.50
2018-01-25T19:56:47.477Z,5.50
2018-01-25T19:59:19.024Z,5.40
2018-01-25T20:01:47.677Z,5.40
2018-01-25T20:04:17.517Z,5.40
2018-01-25T20:06:47.616Z,5.40
2018-01-25T20:09:16.369Z,5.40
2018-01-25T20:11:45.814Z,5.40
2018-01-25T20:14:14.292Z,5.40
2018-01-25T20:16:43.607Z,5.40
2018-01-25T20:19:12.044Z,5.40
2018-01-25T20:21:40.724Z,5.40
2018-01-25T20:24:09.366Z,5.30
2018-01-25T20:26:39.010Z,5.30
2018-01-25T20:29:07.613Z,5.30
2018-01-25T20:31:37.235Z,5.20
2018-01-25T20:34:05.658Z,5.10
2018-01-25T20:36:34.593Z,5.10
2018-01-25T20:39:03.572Z,5.10
2018-01-25T20:41:35.187Z,5.00
2018-01-25T20:44:04.168Z,5.00
2018-01-25T20:46:32.875Z,5.00
2018-01-25T20:49:01.309Z,5.00
2018-01-25T20:51:30.691Z,5.00
2018-01-25T20:53:59.254Z,5.00
2018-01-25T20:56:27.943Z,5.00
2018-01-25T20:58:56.910Z,5.00
2018-01-25T21:01:27.074Z,5.00
2018-01-25T21:03:55.603Z,5.00
2018-01-25T21:06:24.884Z,5.00
2018-01-25T21:08:53.377Z,5.00
2018-01-25T21:11:22.651Z,4.80
2018-01-25T21:13:51.352Z,4.80
2018-01-25T21:16:19.793Z,4.80
2018-01-25T21:18:48.604Z,4.80
2018-01-25T21:21:17.109Z,4.70
2018-01-25T21:23:45.595Z,4.60
2018-01-25T21:26:14.034Z,4.60
2018-01-25T21:28:42.430Z,4.70
2018-01-25T21:31:10.850Z,4.70
2018-01-25T21:33:39.260Z,4.80
2018-01-25T21:36:09.009Z,4.90
2018-01-25T21:38:38.306Z,4.90
2018-01-25T21:41:06.825Z,4.90
2018-01-25T21:43:35.424Z,4.80
2018-01-25T21:46:03.989Z,4.80
2018-01-25T21:48:32.386Z,4.70
2018-01-25T21:51:00.914Z,4.70
2018-01-25T21:53:29.426Z,4.60
2018-01-25T21:55:59.021Z,4.70
2018-01-25T21:58:27.785Z,4.70
2018-01-25T22:00:56.587Z,4.60
2018-01-25T22:03:25.025Z,4.60
2018-01-25T22:05:53.816Z,4.70
2018-01-25T22:08:22.962Z,4.70
2018-01-25T22:10:51.342Z,4.70
2018-01-25T22:13:20.414Z,4.70
2018-01-25T22:15:48.841Z,4.70
2018-01-25T22:18:17.593Z,4.70
2018-01-25T22:20:46.156Z,4.70
2018-01-25T22:23:15.274Z,4.60
2018-01-25T22:25:43.637Z,4.60
2018-01-25T22:28:12.879Z,4.60
2018-01-25T22:30:42.204Z,4.60
2018-01-25T22:33:11.397Z,4.50
2018-01-25T22:35:39.888Z,4.50
2018-01-25T22:38:08.261Z,4.50
2018-01-25T22:40:36.797Z,4.40
2018-01-25T22:43:05.289Z,4.40
2018-01-25T22:45:33.695Z,4.40
2018-01-25T22:48:02.259Z,4.40
2018-01-25T22:50:31.229Z,4.50
2018-01-25T22:52:59.941Z,4.50
2018-01-25T22:55:29.398Z,4.50
2018-01-25T22:57:59.175Z,4.40
2018-01-25T23:00:42.436Z,4.40
2018-01-25T23:03:12.023Z,4.40
2018-01-25T23:05:40.654Z,4.40
2018-01-25T23:08:09.260Z,4.40
2018-01-25T23:10:38.467Z,4.40
2018-01-25T23:13:07.679Z,4.40
2018-01-25T23:15:36.853Z,4.40
2018-01-25T23:18:05.601Z,4.40
2018-01-25T23:20:34.056Z,4.40
2018-01-25T23:23:02.425Z,4.40
2018-01-25T23:25:30.976Z,4.50
2018-01-25T23:30:45.301Z,4.50
2018-01-25T23:33:14.451Z,4.50
2018-01-25T23:35:42.790Z,4.50
2018-01-25T23:38:12.057Z,4.60
2018-01-25T23:40:40.451Z,4.50
2018-01-25T23:43:08.823Z,4.60
2018-01-25T23:45:38.437Z,4.60
2018-01-25T23:48:06.856Z,4.60
2018-01-25T23:50:36.027Z,4.70
2018-01-25T23:53:05.413Z,4.70
2018-01-25T23:55:33.798Z,4.60
2018-01-25T23:58:02.233Z,4.60
